Time;durP1;ratioP1;P1;durP2;ratioP2;P2;SDS_P1;SDS_P2;PMS_P1;PMS_P2;Temp;Humidity;BMP_temperature;BMP_pressure;BME280_temperature;BME280_humidity;BME280_pressure;Samples;Min_cycle;Max_cycle;Signal;HPM_P1;HPM_P2
2021/05/11 00:02:07;;;;;;;9.70;6.93;;;11.80;90.60;;;;;;4988326;28;20224;-82
2021/05/11 00:04:35;;;;;;;9.93;6.70;;;11.80;90.70;;;;;;4991613;28;20604;-82
2021/05/11 00:07:02;;;;;;;9.00;6.97;;;11.80;90.90;;;;;;5000608;28;20276;-82
2021/05/11 00:09:31;;;;;;;9.53;7.23;;;11.70;90.70;;;;;;4990758;28;20579;-83
2021/05/11 00:11:58;;;;;;;10.93;7.30;;;11.70;90.60;;;;;;5001242;28;20203;-83
2021/05/11 00:14:26;;;;;;;11.73;7.60;;;11.80;90.70;;;;;;5020958;28;20427;-84
2021/05/11 00:16:53;;;;;;;8.13;7.30;;;11.60;91.20;;;;;;5026897;28;20204;-81
2021/05/11 00:19:22;;;;;;;10.83;7.67;;;11.60;91.30;;;;;;5009523;28;20299;-83
2021/05/11 00:21:49;;;;;;;8.57;7.70;;;11.50;91.20;;;;;;5004756;28;20321;-82
2021/05/11 00:24:17;;;;;;;10.73;7.30;;;11.50;91.10;;;;;;5018768;28;20223;-81
2021/05/11 00:26:45;;;;;;;10.70;7.70;;;11.40;91.20;;;;;;4992301;28;20246;-84
2021/05/11 00:29:13;;;;;;;11.40;7.80;;;11.40;91.20;;;;;;4994253;28;20987;-82
2021/05/11 00:31:40;;;;;;;8.23;7.43;;;11.30;91.50;;;;;;4987017;28;20861;-81
2021/05/11 00:34:08;;;;;;;9.83;7.47;;;11.30;91.40;;;;;;4993067;28;20204;-83
2021/05/11 00:36:36;;;;;;;8.53;7.67;;;11.30;92.00;;;;;;4993529;28;20230;-85
2021/05/11 00:39:04;;;;;;;8.83;7.70;;;11.30;92.20;;;;;;4996653;28;20906;-82
2021/05/11 00:41:32;;;;;;;10.87;7.93;;;11.20;92.00;;;;;;4998082;28;20669;-82
2021/05/11 00:44:01;;;;;;;8.63;7.73;;;11.20;92.60;;;;;;4996435;28;20663;-84
2021/05/11 00:46:30;;;;;;;8.57;7.67;;;11.20;92.20;;;;;;5012678;28;20255;-83
2021/05/11 00:48:58;;;;;;;8.27;7.40;;;11.10;92.80;;;;;;5016116;28;20514;-83
2021/05/11 00:51:25;;;;;;;8.73;7.77;;;11.20;93.00;;;;;;4994747;28;20195;-83
2021/05/11 00:53:53;;;;;;;11.60;7.43;;;11.30;93.10;;;;;;5000461;28;20192;-82
2021/05/11 00:56:21;;;;;;;8.23;7.47;;;11.10;92.60;;;;;;4995866;28;20207;-83
2021/05/11 00:58:49;;;;;;;10.27;8.33;;;11.10;92.50;;;;;;4993218;28;20222;-82
2021/05/11 01:01:17;;;;;;;10.23;8.33;;;11.00;92.70;;;;;;4997018;28;20211;-82
2021/05/11 01:03:45;;;;;;;11.50;8.43;;;11.00;92.80;;;;;;4991910;28;20815;-82
2021/05/11 01:06:12;;;;;;;9.03;8.13;;;11.00;93.00;;;;;;5020566;28;20257;-82
2021/05/11 01:08:40;;;;;;;9.27;8.37;;;11.00;93.40;;;;;;5023790;28;20222;-85
2021/05/11 01:11:08;;;;;;;8.27;7.50;;;11.00;94.00;;;;;;5025511;28;20405;-82
2021/05/11 01:13:35;;;;;;;9.30;7.87;;;11.00;93.70;;;;;;4996710;28;20605;-82
2021/05/11 01:16:02;;;;;;;10.00;8.60;;;11.00;93.90;;;;;;4996523;28;21002;-84
2021/05/11 01:18:33;;;;;;;10.80;8.27;;;11.10;94.60;;;;;;4993355;28;20513;-84
2021/05/11 01:21:15;;;;;;;8.77;7.70;;;11.10;93.90;;;;;;4994992;28;20239;-83
2021/05/11 01:26:38;;;;;;;8.90;8.00;;;11.00;94.10;;;;;;4989461;28;20245;-85
2021/05/11 01:48:44;;;;;;;11.10;8.40;;;10.60;96.00;;;;;;5020198;28;20210;-84
2021/05/11 01:51:18;;;;;;;13.47;10.80;;;10.60;95.70;;;;;;5027182;28;20188;-81
2021/05/11 01:54:09;;;;;;;9.53;8.60;;;10.60;96.10;;;;;;5022984;28;20324;-83
2021/05/11 01:57:00;;;;;;;9.87;8.87;;;10.50;96.10;;;;;;5022517;28;20207;-83
2021/05/11 02:24:39;;;;;;;11.93;9.53;;;10.00;99.90;;;;;;4914385;29;20272;-82
2021/05/11 02:27:07;;;;;;;11.43;9.13;;;10.00;99.90;;;;;;4915742;28;21007;-83
2021/05/11 02:29:35;;;;;;;11.20;9.17;;;10.10;99.90;;;;;;4916221;28;20225;-83
2021/05/11 02:32:03;;;;;;;12.83;9.43;;;10.10;99.90;;;;;;4927549;28;20276;-82
2021/05/11 02:34:31;;;;;;;18.17;10.00;;;10.10;99.90;;;;;;4936480;28;20217;-83
2021/05/11 02:36:58;;;;;;;12.37;9.63;;;10.00;99.90;;;;;;4944002;28;20231;-82
2021/05/11 02:39:26;;;;;;;11.27;9.10;;;10.10;99.80;;;;;;4941223;28;20206;-83
2021/05/11 02:41:53;;;;;;;10.00;9.00;;;10.00;99.50;;;;;;4929632;28;20266;-82
2021/05/11 02:44:21;;;;;;;11.53;9.10;;;10.00;99.80;;;;;;4940012;28;20245;-81
2021/05/11 02:46:50;;;;;;;13.63;9.40;;;9.90;99.90;;;;;;4917177;28;20338;-84
2021/05/11 02:49:20;;;;;;;11.73;9.50;;;10.00;99.90;;;;;;4942851;28;20291;-84
2021/05/11 02:51:47;;;;;;;14.57;10.93;;;10.00;99.90;;;;;;5004481;28;20290;-83
2021/05/11 02:54:15;;;;;;;12.27;9.93;;;10.00;99.90;;;;;;4990887;28;20430;-82
2021/05/11 02:56:42;;;;;;;11.40;9.90;;;10.00;99.90;;;;;;5014298;28;20200;-83
2021/05/11 02:59:10;;;;;;;12.93;9.37;;;10.10;99.90;;;;;;5010545;28;20265;-83
2021/05/11 03:01:38;;;;;;;13.63;9.87;;;10.00;99.90;;;;;;5008254;28;20590;-83
2021/05/11 03:04:06;;;;;;;10.23;8.93;;;10.10;99.90;;;;;;5005963;28;20202;-83
2021/05/11 03:06:34;;;;;;;13.67;9.20;;;10.10;99.90;;;;;;5008535;28;20302;-83
2021/05/11 03:09:02;;;;;;;12.30;9.03;;;10.30;99.90;;;;;;5006850;28;20361;-84
2021/05/11 03:11:29;;;;;;;11.23;8.63;;;10.70;96.40;;;;;;5005860;28;20218;-80
2021/05/11 03:13:57;;;;;;;10.97;8.43;;;11.00;94.20;;;;;;5004356;28;20636;-83
2021/05/11 03:16:26;;;;;;;11.40;7.37;;;11.40;92.30;;;;;;5007916;28;20207;-82
2021/05/11 03:18:54;;;;;;;10.10;6.83;;;11.70;91.20;;;;;;5004029;28;20246;-83
2021/05/11 03:21:22;;;;;;;11.70;7.80;;;12.00;90.40;;;;;;5007955;28;20257;-81
2021/05/11 03:23:50;;;;;;;9.33;7.50;;;12.10;90.40;;;;;;5000468;28;20273;-83
2021/05/11 03:26:17;;;;;;;9.60;7.40;;;12.20;90.10;;;;;;5001345;28;20918;-82
2021/05/11 03:28:45;;;;;;;8.33;7.23;;;12.10;90.30;;;;;;5002221;28;20467;-84
2021/05/11 03:31:12;;;;;;;8.37;7.23;;;12.00;90.20;;;;;;5008331;28;20234;-83
2021/05/11 03:33:40;;;;;;;8.23;7.43;;;12.20;90.10;;;;;;5013592;28;20213;-83
2021/05/11 03:36:09;;;;;;;8.70;7.37;;;12.30;90.10;;;;;;5000619;28;20222;-83
2021/05/11 03:38:38;;;;;;;7.93;7.13;;;12.30;90.10;;;;;;4991073;28;20530;-82
2021/05/11 03:41:05;;;;;;;8.20;6.80;;;12.20;90.00;;;;;;5009029;28;20732;-81
2021/05/11 03:43:37;;;;;;;10.33;6.60;;;12.40;88.90;;;;;;5007188;28;20203;-83
2021/05/11 03:46:07;;;;;;;9.50;7.43;;;12.60;89.00;;;;;;5004372;28;20663;-82
2021/05/11 03:48:35;;;;;;;9.73;7.00;;;12.60;88.60;;;;;;5014136;28;20207;-81
2021/05/11 03:51:06;;;;;;;9.23;6.33;;;12.80;87.50;;;;;;4999815;28;20215;-82
2021/05/11 03:53:34;;;;;;;10.00;6.90;;;12.90;87.60;;;;;;4992557;28;20219;-84
2021/05/11 03:56:04;;;;;;;10.10;6.93;;;12.90;87.60;;;;;;5000323;28;20204;-84
2021/05/11 03:58:34;;;;;;;10.73;6.10;;;13.20;86.70;;;;;;5007895;28;20313;-84
2021/05/11 04:01:02;;;;;;;9.43;6.27;;;13.50;86.10;;;;;;5003288;28;20217;-82
2021/05/11 04:03:30;;;;;;;9.87;6.67;;;13.70;85.30;;;;;;5006293;28;20207;-83
2021/05/11 04:06:00;;;;;;;8.93;6.07;;;13.70;85.00;;;;;;5001734;28;20235;-82
2021/05/11 04:08:43;;;;;;;8.33;6.40;;;13.90;84.70;;;;;;5000777;28;20227;-82
2021/05/11 04:11:25;;;;;;;13.00;7.10;;;13.90;84.50;;;;;;5001158;28;20342;-83
2021/05/11 04:16:48;;;;;;;9.67;6.00;;;14.00;84.70;;;;;;4955316;28;20641;-83
2021/05/11 04:19:17;;;;;;;7.17;6.43;;;14.10;84.50;;;;;;5001503;28;20500;-84
2021/05/11 04:21:45;;;;;;;8.90;6.57;;;14.10;84.30;;;;;;5006752;28;20455;-82
2021/05/11 04:24:13;;;;;;;8.17;6.70;;;14.30;84.40;;;;;;5001230;28;20278;-84
2021/05/11 04:26:42;;;;;;;8.90;6.30;;;14.40;83.90;;;;;;5007169;28;20231;-84
2021/05/11 04:29:10;;;;;;;10.07;6.07;;;14.50;83.60;;;;;;4997496;28;20662;-82
2021/05/11 04:31:38;;;;;;;6.47;5.87;;;14.60;83.70;;;;;;5006684;28;20204;-83
2021/05/11 04:34:07;;;;;;;10.83;6.17;;;14.60;83.40;;;;;;5009616;28;20214;-82
2021/05/11 04:36:35;;;;;;;10.70;6.50;;;14.70;83.30;;;;;;5005777;28;20385;-83
2021/05/11 04:39:05;;;;;;;11.30;7.03;;;14.80;83.30;;;;;;5007691;28;20618;-85
2021/05/11 04:41:33;;;;;;;8.90;6.80;;;14.90;83.20;;;;;;4984044;28;20212;-83
2021/05/11 04:44:04;;;;;;;10.30;6.20;;;15.00;82.90;;;;;;4999725;28;20204;-81
2021/05/11 04:46:45;;;;;;;7.97;6.00;;;15.10;82.70;;;;;;5011242;28;20238;-83
2021/05/11 04:49:14;;;;;;;9.63;5.87;;;15.30;82.70;;;;;;5000560;28;20662;-83
2021/05/11 04:51:43;;;;;;;10.00;6.20;;;15.50;82.50;;;;;;5012762;28;20227;-84
2021/05/11 04:54:12;;;;;;;6.97;6.27;;;15.50;82.00;;;;;;5013792;28;20531;-82
2021/05/11 04:56:40;;;;;;;10.23;6.63;;;15.70;82.10;;;;;;5025625;28;20230;-84
2021/05/11 04:59:12;;;;;;;6.43;5.87;;;15.70;81.70;;;;;;5022955;28;20200;-82
2021/05/11 05:01:42;;;;;;;9.03;6.20;;;15.90;81.70;;;;;;5019168;28;20523;-83
2021/05/11 05:04:12;;;;;;;8.87;6.23;;;16.00;81.50;;;;;;5020975;28;20212;-84
2021/05/11 05:06:40;;;;;;;9.63;5.93;;;16.20;81.40;;;;;;5003238;28;20219;-84
2021/05/11 05:09:08;;;;;;;9.00;5.70;;;16.20;81.30;;;;;;4997337;28;20223;-82
2021/05/11 05:11:40;;;;;;;7.70;6.00;;;16.30;80.90;;;;;;5001351;28;20211;-83
2021/05/11 05:14:10;;;;;;;7.27;6.33;;;16.40;80.90;;;;;;5006216;28;20212;-82
2021/05/11 05:16:37;;;;;;;8.30;6.40;;;16.50;81.00;;;;;;4994392;28;20211;-85
2021/05/11 05:19:06;;;;;;;9.80;5.93;;;16.50;80.60;;;;;;5000794;28;20293;-84
2021/05/11 05:21:35;;;;;;;8.33;6.23;;;16.60;80.50;;;;;;4997703;28;20196;-84
2021/05/11 05:24:09;;;;;;;8.57;5.53;;;16.70;80.60;;;;;;4998486;28;20208;-83
2021/05/11 05:26:37;;;;;;;9.43;6.17;;;16.80;80.70;;;;;;5002579;28;20653;-81
2021/05/11 05:29:05;;;;;;;7.37;6.07;;;16.90;80.50;;;;;;5002291;28;20238;-83
2021/05/11 05:31:36;;;;;;;8.10;5.80;;;17.00;79.90;;;;;;5003093;28;20205;-83
2021/05/11 05:34:05;;;;;;;13.67;6.37;;;17.10;80.00;;;;;;5007280;28;20207;-84
2021/05/11 05:36:33;;;;;;;7.87;5.80;;;17.20;79.70;;;;;;4998055;28;20211;-84
2021/05/11 05:39:01;;;;;;;7.80;5.80;;;17.20;79.70;;;;;;5000592;28;20742;-83
2021/05/11 05:41:31;;;;;;;7.50;6.10;;;17.30;79.70;;;;;;4993972;28;20200;-82
2021/05/11 05:43:59;;;;;;;7.10;6.17;;;17.40;79.30;;;;;;4998777;28;20627;-84
2021/05/11 05:46:27;;;;;;;8.80;5.77;;;17.60;79.20;;;;;;4998720;28;20615;-84
2021/05/11 05:48:56;;;;;;;6.53;5.80;;;17.70;79.30;;;;;;4995900;28;20234;-81
2021/05/11 05:51:26;;;;;;;10.33;5.83;;;17.90;79.20;;;;;;4987174;28;20647;-82
2021/05/11 05:53:54;;;;;;;7.13;6.00;;;18.00;78.20;;;;;;4988632;28;20215;-83
2021/05/11 05:56:22;;;;;;;9.47;5.73;;;18.10;77.90;;;;;;4986437;28;20706;-82
2021/05/11 05:58:50;;;;;;;6.73;6.03;;;18.10;77.40;;;;;;4985906;28;20547;-81
2021/05/11 06:01:18;;;;;;;6.30;5.70;;;18.10;77.80;;;;;;4985834;28;20203;-81
2021/05/11 06:03:52;;;;;;;8.00;5.97;;;18.30;77.80;;;;;;4988266;28;20247;-81
2021/05/11 06:06:21;;;;;;;8.57;5.40;;;18.40;77.50;;;;;;4981556;28;20210;-81
2021/05/11 06:08:49;;;;;;;7.13;5.60;;;18.50;77.30;;;;;;4983142;28;20269;-81
2021/05/11 06:11:25;;;;;;;6.53;5.80;;;18.70;77.20;;;;;;4987619;28;20237;-82
2021/05/11 06:14:04;;;;;;;8.37;5.93;;;18.70;76.70;;;;;;4979328;28;20200;-79
2021/05/11 06:19:20;;;;;;;6.30;5.70;;;18.90;77.30;;;;;;4980067;28;20826;-82
2021/05/11 06:21:49;;;;;;;6.43;5.87;;;19.10;76.50;;;;;;4977099;28;20903;-81
2021/05/11 06:24:17;;;;;;;8.73;5.70;;;19.20;76.60;;;;;;4979928;28;20611;-82
2021/05/11 06:26:46;;;;;;;7.10;5.43;;;19.30;76.40;;;;;;4976444;28;20376;-82
2021/05/11 06:29:16;;;;;;;6.60;5.33;;;19.40;75.60;;;;;;4979849;28;20238;-82
2021/05/11 06:31:44;;;;;;;6.10;5.20;;;19.50;75.60;;;;;;4965476;28;20314;-81
2021/05/11 06:34:12;;;;;;;7.13;5.60;;;19.60;75.60;;;;;;4968410;28;20204;-82
2021/05/11 06:36:40;;;;;;;6.30;5.70;;;19.70;75.10;;;;;;4972484;28;20795;-80
2021/05/11 06:39:10;;;;;;;6.13;5.00;;;19.80;75.30;;;;;;4979559;28;20290;-82
2021/05/11 06:41:40;;;;;;;6.87;4.73;;;19.90;74.80;;;;;;4973433;28;20210;-84
2021/05/11 06:44:10;;;;;;;9.07;5.43;;;20.10;75.00;;;;;;4975806;28;20218;-80
2021/05/11 06:47:08;;;;;;;6.20;5.40;;;20.20;75.10;;;;;;4978293;28;20224;-80
2021/05/11 06:49:44;;;;;;;7.40;4.77;;;20.40;73.60;;;;;;4984210;28;20365;-81
2021/05/11 06:55:06;;;;;;;8.37;5.13;;;20.50;73.10;;;;;;4984875;28;20211;-80
2021/05/11 06:57:34;;;;;;;7.87;4.73;;;20.50;73.30;;;;;;4977595;28;20486;-84
2021/05/11 07:00:02;;;;;;;7.20;5.27;;;20.70;73.90;;;;;;4977543;28;20462;-82
2021/05/11 07:02:31;;;;;;;10.97;5.33;;;20.90;73.60;;;;;;4979374;28;20220;-81
2021/05/11 07:04:58;;;;;;;5.13;4.50;;;21.00;72.30;;;;;;4977921;28;20316;-80
2021/05/11 07:07:27;;;;;;;5.23;4.70;;;21.00;71.60;;;;;;4984130;28;20981;-80
2021/05/11 07:10:16;;;;;;;7.30;4.87;;;20.90;71.30;;;;;;4982441;28;20300;-81
2021/05/11 07:15:31;;;;;;;6.83;4.80;;;21.30;71.90;;;;;;4987635;28;20210;-82
2021/05/11 07:18:11;;;;;;;6.87;4.97;;;21.40;71.50;;;;;;4993278;28;20242;-82
2021/05/11 07:20:40;;;;;;;6.73;5.30;;;21.50;70.50;;;;;;5006594;28;20555;-82
2021/05/11 07:23:09;;;;;;;9.38;4.68;;;21.50;69.20;;;;;;4990668;28;20287;-81
2021/05/11 07:25:45;;;;;;;5.47;4.57;;;21.60;70.50;;;;;;4981871;28;20208;-81
2021/05/11 07:31:14;;;;;;;5.00;4.50;;;21.60;69.10;;;;;;4982398;28;20692;-81
2021/05/11 07:33:44;;;;;;;6.63;4.28;;;21.60;69.00;;;;;;4986863;28;20751;-83
2021/05/11 07:36:15;;;;;;;5.05;4.53;;;21.80;69.70;;;;;;5001132;28;20253;-81
2021/05/11 07:38:45;;;;;;;4.80;4.40;;;21.90;68.30;;;;;;5008432;28;20204;-82
2021/05/11 07:41:15;;;;;;;8.73;4.85;;;22.00;68.20;;;;;;5000428;28;20246;-80
2021/05/11 07:43:48;;;;;;;4.53;4.13;;;22.10;67.90;;;;;;5007455;28;20224;-82
2021/05/11 07:46:28;;;;;;;7.53;4.50;;;22.10;66.90;;;;;;5010115;28;20201;-82
2021/05/11 08:06:23;;;;;;;4.90;3.58;;;22.70;64.60;;;;;;4985958;28;20188;-85
2021/05/11 08:14:29;;;;;;;6.18;4.10;;;23.00;64.20;;;;;;4988825;28;20208;-81
2021/05/11 08:16:59;;;;;;;6.95;3.83;;;23.30;64.70;;;;;;4997068;28;20424;-84
2021/05/11 08:19:45;;;;;;;4.28;3.80;;;23.40;65.00;;;;;;4993341;28;20269;-85
2021/05/11 08:27:52;;;;;;;5.15;3.88;;;23.60;62.30;;;;;;4978938;28;20234;-82
2021/05/11 08:30:22;;;;;;;4.20;3.80;;;23.70;63.30;;;;;;4972988;28;20208;-80
2021/05/11 08:32:50;;;;;;;3.97;3.50;;;23.90;62.70;;;;;;4977989;28;20652;-81
2021/05/11 08:35:18;;;;;;;6.30;3.80;;;24.10;62.40;;;;;;4969900;28;20204;-83
2021/05/11 08:37:46;;;;;;;8.10;4.68;;;24.10;62.40;;;;;;4970535;28;20275;-81
2021/05/11 08:40:15;;;;;;;4.78;3.90;;;24.30;61.50;;;;;;4971949;28;20291;-84
2021/05/11 08:42:43;;;;;;;8.20;4.30;;;24.20;61.70;;;;;;4975203;28;20729;-83
2021/05/11 08:45:14;;;;;;;6.75;4.13;;;24.20;62.90;;;;;;4978883;28;20322;-83
2021/05/11 08:47:51;;;;;;;9.48;3.92;;;24.40;61.10;;;;;;4968971;28;20203;-82
2021/05/11 08:50:23;;;;;;;4.93;4.10;;;24.20;61.40;;;;;;4971788;28;20212;-83
2021/05/11 08:53:04;;;;;;;8.57;4.38;;;24.10;61.30;;;;;;4978560;28;20496;-84
2021/05/11 09:07:40;;;;;;;4.93;3.72;;;24.50;60.30;;;;;;4933189;28;20231;-83
2021/05/11 09:24:45;;;;;;;4.68;4.20;;;24.50;59.40;;;;;;4973803;28;21389;-82
2021/05/11 09:27:23;;;;;;;4.70;3.80;;;24.50;59.20;;;;;;4987299;28;20457;-83
2021/05/11 09:30:07;;;;;;;7.35;4.72;;;24.50;59.20;;;;;;4985782;28;20223;-83
2021/05/11 09:32:53;;;;;;;6.88;5.97;;;24.60;60.60;;;;;;4989180;28;20212;-82
2021/05/11 10:36:47;;;;;;;5.97;4.97;;;24.80;55.10;;;;;;4990219;28;20199;-86
2021/05/11 10:42:27;;;;;;;6.65;2.85;;;25.10;55.10;;;;;;4973052;28;20207;-82
2021/05/11 10:48:16;;;;;;;4.45;3.03;;;25.00;55.70;;;;;;4942134;28;20509;-83
2021/05/11 10:50:46;;;;;;;6.57;3.40;;;25.10;55.20;;;;;;4982688;28;20290;-85
2021/05/11 10:53:41;;;;;;;3.63;3.33;;;25.30;55.60;;;;;;4984307;28;20200;-82
2021/05/11 10:56:51;;;;;;;4.20;2.95;;;25.30;54.70;;;;;;4984577;28;20203;-82
2021/05/11 10:59:37;;;;;;;3.67;2.83;;;25.40;54.70;;;;;;4983611;28;20208;-84
2021/05/11 11:05:02;;;;;;;8.32;3.20;;;25.50;55.00;;;;;;4979330;28;20205;-83
2021/05/11 11:07:35;;;;;;;3.33;3.03;;;25.50;54.10;;;;;;4984633;28;20209;-83
2021/05/11 11:10:07;;;;;;;3.70;3.25;;;25.40;53.40;;;;;;4984198;28;20255;-83
2021/05/11 11:12:37;;;;;;;7.47;3.10;;;25.40;53.70;;;;;;4991950;28;20208;-83
2021/05/11 11:15:16;;;;;;;7.13;3.40;;;25.50;54.80;;;;;;4992871;28;20535;-83
2021/05/11 11:17:49;;;;;;;6.78;3.15;;;25.50;55.90;;;;;;4994365;28;20199;-83
2021/05/11 11:20:21;;;;;;;8.60;3.15;;;25.50;54.40;;;;;;4983779;28;20214;-83
2021/05/11 11:26:09;;;;;;;5.15;3.10;;;25.40;53.40;;;;;;4971821;28;20213;-81
2021/05/11 11:28:38;;;;;;;6.43;3.33;;;25.30;52.80;;;;;;4973244;28;20206;-84
2021/05/11 11:31:21;;;;;;;11.23;3.70;;;25.40;55.20;;;;;;4975158;28;20203;-83
2021/05/11 11:33:50;;;;;;;7.95;5.65;;;25.40;54.20;;;;;;4978140;28;20246;-82
2021/05/11 11:36:34;;;;;;;5.60;3.63;;;25.40;54.10;;;;;;4978794;28;20293;-82
2021/05/11 11:39:04;;;;;;;5.03;3.10;;;25.60;53.20;;;;;;4991090;28;21227;-82
2021/05/11 11:41:34;;;;;;;4.47;2.78;;;25.60;53.40;;;;;;4990193;28;20665;-82
2021/05/11 11:44:01;;;;;;;5.78;3.13;;;25.60;53.80;;;;;;4995778;28;20230;-82
2021/05/11 11:46:30;;;;;;;5.47;3.40;;;25.60;53.70;;;;;;4988206;28;20207;-81
2021/05/11 11:49:01;;;;;;;4.63;3.25;;;25.60;52.80;;;;;;4998694;28;20234;-83
2021/05/11 11:51:33;;;;;;;7.32;3.60;;;25.60;53.50;;;;;;4989081;28;20265;-83
2021/05/11 11:54:21;;;;;;;7.22;3.13;;;25.60;53.20;;;;;;5003501;28;20214;-83
2021/05/11 11:59:36;;;;;;;6.60;3.30;;;25.50;54.00;;;;;;4988724;28;20352;-84
2021/05/11 12:02:05;;;;;;;6.13;3.17;;;25.50;54.10;;;;;;4996166;28;20203;-83
2021/05/11 12:04:34;;;;;;;4.20;3.05;;;25.70;53.50;;;;;;5011307;28;20211;-83
2021/05/11 12:07:09;;;;;;;4.95;3.30;;;25.70;53.80;;;;;;5000589;28;20210;-84
2021/05/11 12:09:40;;;;;;;7.22;3.13;;;25.70;53.00;;;;;;4993304;28;20225;-82
2021/05/11 12:12:10;;;;;;;10.93;3.50;;;25.60;53.10;;;;;;4993745;28;20199;-82
2021/05/11 12:14:38;;;;;;;6.45;3.28;;;25.60;53.40;;;;;;4998900;28;20294;-82
2021/05/11 12:17:06;;;;;;;10.48;3.28;;;25.80;54.20;;;;;;4985455;28;20276;-83
2021/05/11 12:19:36;;;;;;;7.93;3.10;;;26.00;54.70;;;;;;5005097;28;20199;-83
2021/05/11 12:22:06;;;;;;;6.30;3.58;;;26.20;53.70;;;;;;4995632;28;20261;-81
2021/05/11 12:24:35;;;;;;;5.90;3.25;;;26.30;54.10;;;;;;4996804;28;20257;-81
2021/05/11 12:27:15;;;;;;;5.07;3.13;;;26.30;53.20;;;;;;4981005;28;20311;-83
2021/05/11 12:29:59;;;;;;;7.30;3.90;;;26.10;52.20;;;;;;4983639;28;20630;-82
2021/05/11 12:32:28;;;;;;;8.80;3.80;;;25.90;52.70;;;;;;4988495;28;20255;-81
2021/05/11 12:35:05;;;;;;;6.17;3.30;;;25.90;53.70;;;;;;5000954;28;20462;-81
2021/05/11 12:37:50;;;;;;;6.82;3.28;;;26.00;52.60;;;;;;5002907;28;20762;-84
2021/05/11 12:40:25;;;;;;;4.72;3.10;;;26.00;52.10;;;;;;5013368;28;20196;-81
2021/05/11 12:42:56;;;;;;;3.67;3.05;;;26.10;52.50;;;;;;5018230;28;20210;-83
2021/05/11 12:45:25;;;;;;;6.18;3.50;;;26.20;52.50;;;;;;5013584;28;20274;-83
2021/05/11 12:48:00;;;;;;;4.07;3.03;;;26.30;52.50;;;;;;5006921;28;20214;-84
2021/05/11 12:50:31;;;;;;;4.90;3.30;;;26.40;52.60;;;;;;5017278;28;20233;-85
2021/05/11 12:53:24;;;;;;;5.15;3.38;;;26.50;51.50;;;;;;5011429;28;20199;-84
2021/05/11 12:56:03;;;;;;;3.75;3.13;;;26.60;51.60;;;;;;5011344;28;20208;-82
2021/05/11 12:58:41;;;;;;;7.80;3.40;;;26.60;51.80;;;;;;4990472;28;20294;-84
2021/05/11 13:01:31;;;;;;;5.95;3.60;;;26.50;52.00;;;;;;4997293;28;20210;-83
2021/05/11 13:21:16;;;;;;;9.07;3.60;;;26.60;50.90;;;;;;4987154;28;20262;-81
2021/05/11 13:26:33;;;;;;;7.63;3.40;;;26.90;50.80;;;;;;4994323;28;20196;-83
2021/05/11 13:29:04;;;;;;;4.43;3.30;;;26.90;51.40;;;;;;4990895;28;20203;-81
2021/05/11 13:31:37;;;;;;;5.95;3.50;;;26.90;50.70;;;;;;4981778;28;20215;-82
2021/05/11 13:34:10;;;;;;;5.88;3.00;;;26.90;50.30;;;;;;4983638;28;20661;-82
2021/05/11 13:36:41;;;;;;;3.50;3.20;;;27.00;50.10;;;;;;4973293;28;20250;-82
2021/05/11 13:39:10;;;;;;;4.93;3.67;;;26.90;49.80;;;;;;4978369;28;20240;-84
2021/05/11 13:41:38;;;;;;;4.88;3.00;;;26.90;50.30;;;;;;4978591;28;20531;-83
2021/05/11 13:44:07;;;;;;;3.70;3.00;;;26.90;50.40;;;;;;4977503;28;20320;-82
2021/05/11 13:46:36;;;;;;;7.50;3.40;;;27.10;49.60;;;;;;4980948;28;20214;-83
2021/05/11 13:49:04;;;;;;;6.20;3.33;;;27.20;49.90;;;;;;4989269;28;20296;-80
2021/05/11 13:51:32;;;;;;;5.97;2.75;;;27.20;48.90;;;;;;4991259;28;20238;-82
2021/05/11 13:54:03;;;;;;;6.63;3.25;;;27.30;49.20;;;;;;4992718;28;20203;-83
2021/05/11 13:56:46;;;;;;;7.53;3.22;;;27.40;48.90;;;;;;5003620;28;20200;-82
2021/05/11 14:04:47;;;;;;;8.00;3.05;;;28.70;49.40;;;;;;5019556;28;20198;-82
2021/05/11 14:07:15;;;;;;;7.78;3.03;;;29.10;47.70;;;;;;5002245;28;20200;-82
2021/05/11 14:09:43;;;;;;;6.63;3.10;;;29.70;47.90;;;;;;5007274;28;20259;-83
2021/05/11 14:12:11;;;;;;;5.93;2.53;;;30.20;47.60;;;;;;5004389;28;20214;-81
2021/05/11 14:14:39;;;;;;;8.25;2.83;;;30.70;48.00;;;;;;5003843;28;20207;-83
2021/05/11 14:17:08;;;;;;;6.38;3.38;;;31.20;47.70;;;;;;4993501;28;20752;-83
2021/05/11 14:19:37;;;;;;;7.13;3.13;;;31.70;47.20;;;;;;4992067;28;20237;-85
2021/05/11 14:22:05;;;;;;;5.82;2.60;;;31.50;45.40;;;;;;4999845;28;20217;-84
2021/05/11 14:24:33;;;;;;;5.28;2.65;;;31.50;45.40;;;;;;5008327;28;20203;-83
2021/05/11 14:27:01;;;;;;;4.95;3.05;;;31.50;45.80;;;;;;5017006;28;20202;-81
2021/05/11 14:29:29;;;;;;;6.00;2.83;;;31.40;45.20;;;;;;4992227;28;20206;-83
2021/05/11 14:31:57;;;;;;;7.65;2.80;;;31.40;44.90;;;;;;4989579;28;20220;-82
2021/05/11 14:34:27;;;;;;;4.25;2.63;;;31.40;44.80;;;;;;4987475;28;20255;-86
2021/05/11 14:36:55;;;;;;;6.63;2.75;;;31.40;44.50;;;;;;4991833;28;20206;-83
2021/05/11 14:39:25;;;;;;;3.47;2.55;;;31.50;44.90;;;;;;4991946;28;20920;-82
2021/05/11 14:41:56;;;;;;;4.43;2.85;;;31.60;44.40;;;;;;4989840;28;20214;-81
2021/05/11 14:44:25;;;;;;;4.00;2.50;;;31.40;44.60;;;;;;5001599;28;20242;-82
2021/05/11 14:46:54;;;;;;;5.95;2.83;;;31.20;44.20;;;;;;4996195;28;20290;-81
2021/05/11 14:49:25;;;;;;;5.00;2.47;;;31.00;44.00;;;;;;4998747;28;20218;-83
2021/05/11 14:51:54;;;;;;;4.90;2.63;;;30.90;44.20;;;;;;5007040;28;20219;-83
2021/05/11 14:54:23;;;;;;;4.57;2.45;;;30.90;43.80;;;;;;5019149;28;20210;-84
2021/05/11 14:56:51;;;;;;;4.97;2.45;;;30.70;43.90;;;;;;5010768;28;20226;-81
2021/05/11 14:59:20;;;;;;;3.55;2.45;;;30.90;44.40;;;;;;5006530;28;20199;-80
2021/05/11 15:01:48;;;;;;;5.07;2.65;;;30.60;43.80;;;;;;5002133;28;20199;-82
2021/05/11 15:04:16;;;;;;;7.55;2.55;;;30.60;43.60;;;;;;5000906;28;20203;-81
2021/05/11 15:06:45;;;;;;;2.53;2.33;;;30.60;44.00;;;;;;5005298;28;20283;-81
2021/05/11 15:09:13;;;;;;;3.83;2.35;;;30.70;44.30;;;;;;5009645;28;20261;-82
2021/05/11 15:11:42;;;;;;;6.22;2.75;;;30.70;43.60;;;;;;5019555;28;20228;-80
2021/05/11 15:14:10;;;;;;;5.28;2.20;;;31.00;44.20;;;;;;5021592;28;20214;-83
2021/05/11 15:16:40;;;;;;;6.25;2.75;;;30.90;43.00;;;;;;5007085;28;20250;-83
2021/05/11 15:19:10;;;;;;;5.65;2.50;;;31.10;43.70;;;;;;5003725;28;20208;-82
2021/05/11 15:21:39;;;;;;;5.18;2.70;;;31.30;43.40;;;;;;5006374;28;20701;-82
2021/05/11 15:24:10;;;;;;;2.30;2.10;;;31.40;43.60;;;;;;4999673;28;20206;-84
2021/05/11 15:26:39;;;;;;;3.63;2.33;;;31.40;43.10;;;;;;5001946;28;20199;-83
2021/05/11 15:29:07;;;;;;;4.30;2.60;;;31.40;42.90;;;;;;5003364;28;20221;-83
2021/05/11 15:31:36;;;;;;;7.90;2.70;;;31.30;42.80;;;;;;5004552;28;20258;-82
2021/05/11 15:34:05;;;;;;;4.43;2.50;;;31.40;43.10;;;;;;5004507;28;20267;-82
2021/05/11 15:36:53;;;;;;;6.82;2.45;;;31.10;42.30;;;;;;5003874;28;20204;-83
2021/05/11 15:39:22;;;;;;;3.55;2.40;;;31.20;43.10;;;;;;5001465;28;20737;-84
2021/05/11 15:41:50;;;;;;;4.28;2.33;;;31.10;42.30;;;;;;5016803;28;20387;-80
2021/05/11 15:44:18;;;;;;;3.60;2.60;;;30.90;42.10;;;;;;5012777;28;20196;-82
2021/05/11 15:46:46;;;;;;;3.85;2.35;;;30.80;42.40;;;;;;5005614;28;20206;-82
2021/05/11 15:49:15;;;;;;;4.88;2.67;;;30.40;42.20;;;;;;4995243;28;20246;-81
2021/05/11 15:51:43;;;;;;;4.05;2.50;;;30.60;42.50;;;;;;4999390;28;20231;-85
2021/05/11 15:54:11;;;;;;;3.45;2.50;;;30.60;42.70;;;;;;4998621;28;20285;-82
2021/05/11 15:56:40;;;;;;;6.45;2.70;;;30.70;42.50;;;;;;4995282;28;20979;-84
2021/05/11 15:59:08;;;;;;;2.95;2.75;;;30.60;42.90;;;;;;4998822;28;20843;-83
2021/05/11 16:01:37;;;;;;;8.93;2.85;;;29.80;42.10;;;;;;5001396;28;20230;-83
2021/05/11 16:04:05;;;;;;;3.03;2.10;;;29.00;42.80;;;;;;5005408;28;20218;-81
2021/05/11 16:06:33;;;;;;;3.38;2.33;;;28.10;42.10;;;;;;5008595;28;20198;-83
2021/05/11 16:09:02;;;;;;;7.40;2.30;;;27.30;43.10;;;;;;5017098;28;20191;-82
2021/05/11 16:11:30;;;;;;;3.45;2.60;;;26.60;43.20;;;;;;5013733;28;20256;-82
2021/05/11 16:13:59;;;;;;;4.20;2.85;;;26.20;43.40;;;;;;5011900;28;20571;-83
2021/05/11 16:16:27;;;;;;;6.15;2.75;;;25.80;43.50;;;;;;5003456;28;20234;-86
2021/05/11 16:18:55;;;;;;;3.13;2.10;;;25.70;43.30;;;;;;5000900;28;20621;-86
2021/05/11 16:21:23;;;;;;;9.85;2.70;;;25.50;43.80;;;;;;4998863;28;20678;-83
2021/05/11 16:23:52;;;;;;;4.53;2.40;;;25.40;43.70;;;;;;5004533;28;20740;-83
2021/05/11 16:26:20;;;;;;;6.53;2.70;;;25.20;43.80;;;;;;5000763;28;20199;-82
2021/05/11 16:28:49;;;;;;;3.03;2.30;;;25.10;44.00;;;;;;5009293;28;20263;-83
2021/05/11 16:31:19;;;;;;;3.13;2.50;;;25.00;44.00;;;;;;5004966;28;20242;-83
2021/05/11 16:33:47;;;;;;;3.20;2.80;;;24.90;44.10;;;;;;5009706;28;20210;-82
2021/05/11 16:36:16;;;;;;;7.38;2.47;;;24.90;44.70;;;;;;5008457;28;20301;-83
2021/05/11 16:38:44;;;;;;;4.03;2.47;;;24.80;44.70;;;;;;5002833;28;20207;-86
2021/05/11 16:41:12;;;;;;;6.88;3.00;;;24.80;44.20;;;;;;5009910;28;20268;-81
2021/05/11 16:43:40;;;;;;;5.07;2.65;;;24.70;44.10;;;;;;5013306;28;20258;-82